Texas General Land Office
 Texas General Land Office
 George P. Bush, Commissioner

 Oil Spill Prevention
 & Response

Texas Automated Buoy System
Real Time Ocean Observations
Supporting Oil Spill Prevention and
Response since 1995
Geochemical and Environmental Research Group

NOAA - NDBC Buoy 42019 -- Texas Automated Buoy System

NBDC Buoy 42019
Freeport, TX
Conditions at 10/19/2018 08:20 UTC (10/19/2018 08:20 UTC)
27° 54.7830'N   95° 21.6000'W
60nm South of Freeport, TX
Anemometer height: 5m
Water Depth: 269 feet (82 meters)
Wind: 9.0 m/s (17.5 kts)
          From 100°T (E)
Wind Gust: 11.00 m/s (21.4 kts) Pressure: 1017.3 mb (30.04 inHg)
Air Temp: 28°C (82 °F) Dewpoint: 25°C (78°F) Relative Humidity: 85%
Sea Surf Temp: 28 °C (83 °F) Wave Height: -99.0m (-324.8 ft) Wave Period: -99
  


IMPORTANT: Notice to Mariners


Today's Velocity Data

  Buoy     Date      Time     East   North   Speed  Dir(°T) Wave Ht WvPer  Num
|  ID  |          |  (UTC) | (m/s) | (m/s) | (m/s) |(FROM) |  (m)  | secs| pts |
+======+==========+========+=======+=======+=======+=======+=======+=====+=====+
  42019 10/16/2018 00:10:00    0.00   12.00   12.00       0     0.0     0     1
  42019 10/16/2018 00:20:00    0.00   12.00   12.00       0     1.9     6     1
  42019 10/16/2018 00:30:00    0.00   12.00   12.00       0     0.0     0     1
  42019 10/16/2018 00:40:00    0.00   11.00   11.00       0     0.0     0     1
  42019 10/16/2018 00:50:00    1.91   10.83   11.00      10     0.0     0     1
  42019 10/16/2018 06:00:00    3.71    9.51   10.21      21     0.5     1    31
  42019 10/16/2018 06:10:00    3.08    8.46    9.00      20     0.0     0     1
  42019 10/16/2018 06:20:00    2.74    7.52    8.00      20     1.7     7     1
  42019 10/16/2018 06:30:00    3.08    8.46    9.00      20     0.0     0     1
  42019 10/16/2018 06:40:00    3.08    8.46    9.00      20     0.0     0     1
  42019 10/16/2018 06:50:00    2.74    7.52    8.00      20     0.0     0     1
  42019 10/16/2018 12:00:00   -3.21    9.23    9.77     341     0.3     1    31
  42019 10/16/2018 12:10:00   -3.42    9.40   10.00     340     0.0     0     1
  42019 10/16/2018 12:20:00   -3.42    9.40   10.00     340     1.6     6     1
  42019 10/16/2018 12:30:00   -3.42    9.40   10.00     340     0.0     0     1
  42019 10/16/2018 12:40:00   -3.42    9.40   10.00     340     0.0     0     1
  42019 10/16/2018 12:50:00   -6.43    7.66   10.00     320     0.0     0     1
  42019 10/16/2018 18:00:00   -3.39    8.34    9.01     338     0.2     1    31
  42019 10/16/2018 18:10:00   -3.08    8.46    9.00     340     1.6     0     1
  42019 10/16/2018 18:20:00   -3.08    8.46    9.00     340     1.6     6     1
  42019 10/16/2018 18:30:00   -3.08    8.46    9.00     340     0.0     0     1
  42019 10/16/2018 18:40:00   -3.08    8.46    9.00     340     0.0     0     1
  42019 10/16/2018 18:50:00   -3.08    8.46    9.00     340     0.0     0     1
  42019 10/17/2018 00:00:00   -2.33    8.92    9.21     345     0.3     1    31
  42019 10/17/2018 00:10:00    0.00    9.00    9.00       0     1.6     0     1
  42019 10/17/2018 00:20:00   -1.74    9.85   10.00     350     1.6     6     1
  42019 10/17/2018 00:30:00   -1.56    8.86    9.00     350     0.0     0     1
  42019 10/17/2018 00:40:00   -1.56    8.86    9.00     350     0.0     0     1
  42019 10/17/2018 00:50:00   -1.56    8.86    9.00     350     0.0     0     1
  42019 10/17/2018 06:00:00   -0.70    8.81    8.84     356     0.2     1    31
  42019 10/17/2018 06:10:00   -1.56    8.86    9.00     350     1.5     0     1
  42019 10/17/2018 06:20:00   -1.56    8.86    9.00     350     1.5     6     1
  42019 10/17/2018 06:30:00   -1.56    8.86    9.00     350     0.0     0     1
  42019 10/17/2018 06:40:00   -1.56    8.86    9.00     350     0.0     0     1
  42019 10/17/2018 06:50:00   -1.56    8.86    9.00     350     0.0     0     1
  42019 10/17/2018 12:00:00   -0.36    9.38    9.39     358     0.3     1    31
  42019 10/17/2018 12:10:00    0.00    9.00    9.00       0     0.0     0     1
  42019 10/17/2018 12:20:00    0.00   10.00   10.00       0     1.5     7     1
  42019 10/17/2018 12:30:00    0.00    9.00    9.00       0     0.0     0     1
  42019 10/17/2018 12:40:00    0.00    9.00    9.00       0     0.0     0     1
  42019 10/17/2018 12:50:00    0.00    9.00    9.00       0     0.0     0     1
  42019 10/17/2018 18:00:00    1.34    9.21    9.30       8     0.3     1    31
  42019 10/17/2018 18:10:00    1.56    8.86    9.00      10     0.0     0     1
  42019 10/17/2018 18:20:00    1.56    8.86    9.00      10     1.5     6     1
  42019 10/17/2018 18:30:00    3.08    8.46    9.00      20     0.0     0     1
  42019 10/17/2018 18:40:00    3.08    8.46    9.00      20     0.0     0     1
  42019 10/17/2018 18:50:00    3.08    8.46    9.00      20     0.0     0     1
  42019 10/18/2018 00:00:00    2.19    9.30    9.55      13     0.3     1    31
  42019 10/18/2018 00:10:00    1.56    8.86    9.00      10     0.0     0     1
  42019 10/18/2018 00:20:00    3.08    8.46    9.00      20     1.6     6     1
  42019 10/18/2018 00:30:00    3.42    9.40   10.00      20     0.0     0     1
  42019 10/18/2018 00:40:00    3.42    9.40   10.00      20     0.0     0     1
  42019 10/18/2018 00:50:00    3.42    9.40   10.00      20     0.0     0     1
  42019 10/18/2018 06:00:00    3.49   10.70   11.25      18     0.4     1    31
  42019 10/18/2018 06:10:00    4.10   11.28   12.00      20     0.0     0     1
  42019 10/18/2018 06:20:00    4.10   11.28   12.00      20     2.3     7     1
  42019 10/18/2018 06:30:00    4.10   11.28   12.00      20     0.0     0     1
  42019 10/18/2018 06:40:00    6.00   10.39   12.00      30     0.0     0     1
  42019 10/18/2018 06:50:00    4.10   11.28   12.00      20     0.0     0     1
  42019 10/18/2018 12:00:00    6.73    9.65   11.76      35     0.4     1    31
  42019 10/18/2018 12:10:00    6.00   10.39   12.00      30     0.0     0     1
  42019 10/18/2018 12:20:00    7.71    9.19   12.00      40     2.7     8     1
  42019 10/18/2018 12:30:00    7.71    9.19   12.00      40     0.0     0     1
  42019 10/18/2018 12:40:00    7.71    9.19   12.00      40     0.0     0     1
  42019 10/18/2018 12:50:00    7.71    9.19   12.00      40     0.0     0     1
  42019 10/18/2018 18:00:00    8.20    7.62   11.19      47     0.6     1    31
  42019 10/18/2018 18:10:00    8.66    5.00   10.00      60     0.0     0     1
  42019 10/18/2018 18:20:00    8.66    5.00   10.00      60     2.7     8     1
  42019 10/18/2018 18:30:00    8.66    5.00   10.00      60     0.0     0     1
  42019 10/18/2018 18:40:00    9.53    5.50   11.00      60     0.0     0     1
  42019 10/18/2018 18:50:00    8.66    5.00   10.00      60     0.0     0     1
  42019 10/19/2018 00:00:00    8.54    1.37    8.65      81     0.5     1    31
  42019 10/19/2018 00:10:00   10.00    0.00   10.00      90     0.0     0     1
  42019 10/19/2018 00:20:00   10.00    0.00   10.00      90     2.5     8     1
  42019 10/19/2018 00:30:00   10.00    0.00   10.00      90     0.0     0     1
  42019 10/19/2018 00:40:00   10.00    0.00   10.00      90     0.0     0     1
  42019 10/19/2018 00:50:00   11.82   -2.08   12.00     100     0.0     0     1
  42019 10/19/2018 06:00:00    9.10   -0.73    9.13      95     0.5     1    31
  42019 10/19/2018 06:10:00    7.52    2.74    8.00      70     0.0     0     1
  42019 10/19/2018 06:20:00    7.52    2.74    8.00      70     2.3     8     1
  42019 10/19/2018 06:30:00    7.52    2.74    8.00      70     0.0     0     1
  42019 10/19/2018 06:40:00    8.86    1.56    9.00      80     0.0     0     1
  42019 10/19/2018 06:50:00    9.00    0.00    9.00      90     0.0     0     1